createdAt,value
2023-03-30T00:01:18.814Z,98452.66
2023-03-30T00:03:48.144Z,98458.69
2023-03-30T00:06:21.844Z,98450.38
2023-03-30T00:08:50.296Z,98450.78
2023-03-30T00:11:23.436Z,98441.47
2023-03-30T00:13:52.634Z,98454.13
2023-03-30T00:16:21.857Z,98462.63
2023-03-30T00:18:50.712Z,98450.78
2023-03-30T00:21:20.969Z,98452.03
2023-03-30T00:23:49.260Z,98451.81
2023-03-30T00:26:18.310Z,98451.63
2023-03-30T00:28:47.980Z,98449.13
2023-03-30T00:33:47.161Z,98448.88
2023-03-30T00:36:16.521Z,98447.41
2023-03-30T00:38:45.769Z,98443.25
2023-03-30T00:41:14.090Z,98443.66
2023-03-30T00:44:01.429Z,98437.84
2023-03-30T00:46:30.998Z,98445.91
2023-03-30T00:49:01.230Z,98440.72
2023-03-30T00:51:30.226Z,98433.25
2023-03-30T00:54:01.151Z,98434.88
2023-03-30T00:56:31.296Z,98445.63
2023-03-30T00:59:01.014Z,98442.91
2023-03-30T01:01:30.232Z,98448.91
2023-03-30T01:04:00.155Z,98448.25
2023-03-30T01:06:30.578Z,98462.72
2023-03-30T01:08:59.213Z,98455.06
2023-03-30T01:11:27.968Z,98448.88
2023-03-30T01:13:59.387Z,98459.00
2023-03-30T01:16:36.094Z,98457.13
2023-03-30T01:19:16.335Z,98458.34
2023-03-30T01:22:00.302Z,98460.38
2023-03-30T01:24:49.215Z,98453.34
2023-03-30T01:27:26.826Z,98453.75
2023-03-30T01:30:05.539Z,98452.06
2023-03-30T01:32:55.105Z,98458.06
2023-03-30T01:35:47.039Z,98446.22
2023-03-30T01:38:39.288Z,98446.38
2023-03-30T01:41:14.124Z,98445.75
2023-03-30T01:43:47.880Z,98442.44
2023-03-30T01:46:25.507Z,98440.78
2023-03-30T01:49:00.042Z,98452.16
2023-03-30T01:51:30.417Z,98450.13
2023-03-30T01:54:02.199Z,98452.41
2023-03-30T01:56:34.036Z,98446.63
2023-03-30T01:59:04.553Z,98452.63
2023-03-30T02:01:34.700Z,98454.94
2023-03-30T02:04:05.357Z,98444.81
2023-03-30T02:06:39.938Z,98449.16
2023-03-30T02:09:09.790Z,98459.28
2023-03-30T02:11:41.265Z,98456.59
2023-03-30T02:14:11.273Z,98461.97
2023-03-30T02:16:43.012Z,98463.22
2023-03-30T02:19:11.104Z,98454.53
2023-03-30T02:21:39.320Z,98455.81
2023-03-30T02:24:09.113Z,98453.06
2023-03-30T02:26:37.658Z,98448.31
2023-03-30T02:29:07.149Z,98450.59
2023-03-30T02:31:35.392Z,98434.88
2023-03-30T02:34:10.869Z,98444.97
2023-03-30T02:36:45.433Z,98429.00
2023-03-30T02:39:29.418Z,98436.88
2023-03-30T02:42:16.752Z,98428.19
2023-03-30T02:44:52.776Z,98421.97
2023-03-30T02:47:24.731Z,98425.50
2023-03-30T02:49:56.558Z,98422.59
2023-03-30T02:52:33.764Z,98427.16
2023-03-30T02:55:09.315Z,98415.34
2023-03-30T02:57:43.631Z,98422.19
2023-03-30T03:00:43.350Z,98414.75
2023-03-30T03:03:18.789Z,98418.03
2023-03-30T03:05:48.942Z,98414.31
2023-03-30T03:08:19.654Z,98403.94
2023-03-30T03:10:50.059Z,98407.28
2023-03-30T03:13:20.791Z,98413.47
2023-03-30T03:15:53.029Z,98404.59
2023-03-30T03:18:22.779Z,98411.84
2023-03-30T03:20:50.976Z,98413.47
2023-03-30T03:23:20.696Z,98409.75
2023-03-30T03:25:54.673Z,98412.25
2023-03-30T03:28:23.617Z,98414.34
2023-03-30T03:30:58.605Z,98414.38
2023-03-30T03:33:27.210Z,98421.03
2023-03-30T03:36:21.767Z,98413.19
2023-03-30T03:38:53.739Z,98417.13
2023-03-30T03:41:21.938Z,98417.78
2023-03-30T03:43:50.036Z,98410.97
2023-03-30T03:46:22.051Z,98402.91
2023-03-30T03:48:50.794Z,98403.75
2023-03-30T03:51:19.139Z,98406.44
2023-03-30T03:53:49.776Z,98402.09
2023-03-30T03:56:18.197Z,98404.38
2023-03-30T03:58:46.575Z,98403.16
2023-03-30T04:01:16.301Z,98401.28
2023-03-30T04:03:45.925Z,98409.16
2023-03-30T04:06:14.126Z,98402.94
2023-03-30T04:08:44.920Z,98403.56
2023-03-30T04:11:27.909Z,98399.25
2023-03-30T04:14:07.318Z,98407.91
2023-03-30T04:16:57.922Z,98405.88
2023-03-30T04:19:55.369Z,98414.97
2023-03-30T04:22:37.120Z,98412.69
2023-03-30T04:25:26.773Z,98407.13
2023-03-30T04:27:57.872Z,98406.28
2023-03-30T04:30:46.782Z,98400.09
2023-03-30T04:33:35.041Z,98408.16
2023-03-30T04:36:38.810Z,98406.53
2023-03-30T04:39:31.820Z,98404.88
2023-03-30T04:42:15.676Z,98410.47
2023-03-30T04:44:59.216Z,98413.59
2023-03-30T04:48:02.730Z,98414.25
2023-03-30T04:51:06.226Z,98413.81
2023-03-30T04:53:41.766Z,98422.13
2023-03-30T04:56:16.488Z,98414.88
2023-03-30T04:59:07.823Z,98422.31
2023-03-30T05:01:55.133Z,98420.28
2023-03-30T05:04:38.151Z,98429.59
2023-03-30T05:07:24.333Z,98430.03
2023-03-30T05:10:07.977Z,98423.81
2023-03-30T05:12:42.159Z,98439.56
2023-03-30T05:15:30.242Z,98437.47
2023-03-30T05:18:14.029Z,98434.78
2023-03-30T05:20:47.845Z,98434.59
2023-03-30T05:23:45.345Z,98434.78
2023-03-30T05:26:33.563Z,98441.22
2023-03-30T05:29:26.450Z,98436.25
2023-03-30T05:32:06.434Z,98439.56
2023-03-30T05:34:47.029Z,98437.50
2023-03-30T05:37:35.530Z,98435.84
2023-03-30T05:40:42.519Z,98435.63
2023-03-30T05:43:30.711Z,98435.66
2023-03-30T05:46:17.565Z,98437.50
2023-03-30T05:49:18.171Z,98442.50
2023-03-30T05:52:24.804Z,98442.50
2023-03-30T05:55:05.628Z,98444.56
2023-03-30T05:57:52.473Z,98446.44
2023-03-30T06:00:50.062Z,98437.09
2023-03-30T06:03:30.158Z,98442.09
2023-03-30T06:05:58.746Z,98444.97
2023-03-30T06:08:27.728Z,98457.59
2023-03-30T06:11:01.461Z,98448.91
2023-03-30T06:13:35.726Z,98453.06
2023-03-30T06:16:05.583Z,98457.00
2023-03-30T06:18:34.442Z,98469.00
2023-03-30T06:21:08.230Z,98463.41
2023-03-30T06:24:07.167Z,98478.13
2023-03-30T06:26:38.485Z,98472.94
2023-03-30T06:29:06.783Z,98483.09
2023-03-30T06:31:36.575Z,98483.94
2023-03-30T06:34:25.107Z,98481.47
2023-03-30T06:36:54.279Z,98491.81
2023-03-30T06:39:25.594Z,98491.22
2023-03-30T06:41:54.130Z,98493.50
2023-03-30T06:44:42.650Z,98498.25
2023-03-30T06:47:16.831Z,98508.41
2023-03-30T06:49:45.006Z,98519.22
2023-03-30T06:52:32.071Z,98522.53
2023-03-30T06:55:00.757Z,98525.41
2023-03-30T06:57:29.055Z,98527.53
2023-03-30T06:59:57.438Z,98531.44
2023-03-30T07:02:42.621Z,98547.59
2023-03-30T07:05:33.752Z,98541.19
2023-03-30T07:08:34.176Z,98546.59
2023-03-30T07:11:02.618Z,98551.56
2023-03-30T07:13:34.312Z,98549.06
2023-03-30T07:16:02.697Z,98548.84
2023-03-30T07:18:34.607Z,98556.50
2023-03-30T07:21:04.746Z,98559.00
2023-03-30T07:23:39.001Z,98547.16
2023-03-30T07:26:07.791Z,98554.41
2023-03-30T07:28:53.462Z,98549.81
2023-03-30T07:31:24.592Z,98549.59
2023-03-30T07:33:54.757Z,98558.69
2023-03-30T07:36:26.137Z,98566.78
2023-03-30T07:38:54.761Z,98561.75
2023-03-30T07:41:23.434Z,98557.84
2023-03-30T07:43:55.488Z,98552.47
2023-03-30T07:46:23.799Z,98553.00
2023-03-30T07:48:56.086Z,98551.75
2023-03-30T07:51:26.613Z,98549.25
2023-03-30T07:54:03.091Z,98548.38
2023-03-30T07:56:44.864Z,98554.81
2023-03-30T07:59:15.933Z,98553.91
2023-03-30T08:01:50.307Z,98552.50
2023-03-30T08:04:36.151Z,98551.16
2023-03-30T08:07:05.511Z,98549.50
2023-03-30T08:09:33.917Z,98533.28
2023-03-30T08:12:02.273Z,98535.09
2023-03-30T08:14:33.671Z,98531.16
2023-03-30T08:17:02.845Z,98531.72
2023-03-30T08:19:30.948Z,98543.97
2023-03-30T08:22:01.901Z,98548.47
2023-03-30T08:24:30.945Z,98538.47
2023-03-30T08:26:59.164Z,98538.78
2023-03-30T08:29:30.078Z,98540.00
2023-03-30T08:32:00.027Z,98535.13
2023-03-30T08:34:29.636Z,98540.25
2023-03-30T08:37:02.739Z,98538.00
2023-03-30T08:39:33.490Z,98541.16
2023-03-30T08:42:06.888Z,98534.75
2023-03-30T08:44:37.202Z,98535.44
2023-03-30T08:47:07.640Z,98523.59
2023-03-30T08:49:41.239Z,98529.00
2023-03-30T08:52:14.573Z,98527.97
2023-03-30T08:54:43.277Z,98535.97
2023-03-30T08:57:17.821Z,98534.56
2023-03-30T08:59:52.884Z,98507.41
2023-03-30T09:02:25.166Z,98501.50
2023-03-30T09:05:02.470Z,98509.16
2023-03-30T09:07:34.299Z,98506.63
2023-03-30T09:10:04.838Z,98496.00
2023-03-30T09:12:37.907Z,98487.66
2023-03-30T09:15:09.844Z,98493.84
2023-03-30T09:17:41.721Z,98498.53
2023-03-30T09:20:13.465Z,98478.00
2023-03-30T09:22:44.180Z,98483.72
2023-03-30T09:25:20.209Z,98462.56
2023-03-30T09:27:56.389Z,98452.59
2023-03-30T09:30:27.759Z,98446.97
2023-03-30T09:33:01.515Z,98465.59
2023-03-30T09:35:38.269Z,98462.84
2023-03-30T09:38:10.716Z,98460.44
2023-03-30T09:40:48.070Z,98485.72
2023-03-30T09:43:19.235Z,98466.53
2023-03-30T09:45:47.750Z,98470.09
2023-03-30T09:48:17.719Z,98474.56
2023-03-30T09:50:47.484Z,98485.47
2023-03-30T09:53:26.122Z,98504.34
2023-03-30T09:56:10.364Z,98509.53
2023-03-30T09:58:38.794Z,98514.44
2023-03-30T10:01:08.657Z,98535.25
2023-03-30T10:03:37.401Z,98522.00
2023-03-30T10:06:07.565Z,98524.91
2023-03-30T10:08:42.088Z,98529.38
2023-03-30T10:11:10.606Z,98547.44
2023-03-30T10:13:40.318Z,98513.19
2023-03-30T10:16:10.266Z,98509.03
2023-03-30T10:18:40.617Z,98496.50
2023-03-30T10:21:17.398Z,98479.41
2023-03-30T10:23:48.423Z,98490.94
2023-03-30T10:26:19.317Z,98465.44
2023-03-30T10:28:53.781Z,98452.59
2023-03-30T10:31:22.373Z,98458.16
2023-03-30T10:33:51.276Z,98479.97
2023-03-30T10:36:20.658Z,98493.94
2023-03-30T10:38:53.872Z,98501.50
2023-03-30T10:41:23.715Z,98490.06
2023-03-30T10:43:53.986Z,98488.44
2023-03-30T10:46:27.528Z,98474.63
2023-03-30T10:49:01.589Z,98464.22
2023-03-30T10:51:35.112Z,98468.31
2023-03-30T10:54:08.727Z,98461.66
2023-03-30T10:56:40.845Z,98465.44
2023-03-30T10:59:17.966Z,98459.00
2023-03-30T11:01:53.476Z,98447.91
2023-03-30T11:04:24.598Z,98449.88
2023-03-30T11:06:54.746Z,98474.84
2023-03-30T11:09:28.250Z,98463.94
2023-03-30T11:11:59.395Z,98428.97
2023-03-30T11:14:29.376Z,98427.47
2023-03-30T11:17:00.607Z,98424.47
2023-03-30T11:19:33.949Z,98425.81
2023-03-30T11:22:06.089Z,98398.97
2023-03-30T11:24:36.607Z,98400.66
2023-03-30T11:27:08.277Z,98401.78
2023-03-30T11:29:40.055Z,98411.31
2023-03-30T11:32:24.860Z,98409.28
2023-03-30T11:34:59.092Z,98417.94
2023-03-30T11:37:31.680Z,98418.56
2023-03-30T11:40:11.048Z,98410.50
2023-03-30T11:42:39.651Z,98391.63
2023-03-30T11:45:18.728Z,98398.50
2023-03-30T11:47:53.734Z,98386.44
2023-03-30T11:50:30.041Z,98369.75
2023-03-30T11:53:04.417Z,98355.78
2023-03-30T11:55:50.678Z,98359.06
2023-03-30T11:58:28.637Z,98362.31
2023-03-30T12:01:03.803Z,98370.47
2023-03-30T12:03:41.135Z,98379.00
2023-03-30T12:06:27.496Z,98353.47
2023-03-30T12:09:16.847Z,98352.75
2023-03-30T12:11:50.484Z,98355.78
2023-03-30T12:14:41.715Z,98344.78
2023-03-30T12:17:15.193Z,98342.25
2023-03-30T12:19:56.170Z,98347.38
2023-03-30T12:22:31.909Z,98364.63
2023-03-30T12:25:03.095Z,98337.88
2023-03-30T12:27:35.796Z,98333.78
2023-03-30T12:30:24.710Z,98337.66
2023-03-30T12:33:03.848Z,98339.81
2023-03-30T12:36:02.516Z,98329.13
2023-03-30T12:38:39.010Z,98327.72
2023-03-30T12:41:18.636Z,98336.53
2023-03-30T12:44:16.367Z,98332.47
2023-03-30T12:46:51.958Z,98342.09
2023-03-30T12:49:26.157Z,98340.72
2023-03-30T12:51:59.015Z,98330.59
2023-03-30T12:54:39.851Z,98324.47
2023-03-30T12:57:14.452Z,98312.31
2023-03-30T12:59:59.854Z,98302.81
2023-03-30T13:02:57.877Z,98323.53
2023-03-30T13:05:27.440Z,98326.84
2023-03-30T13:07:56.591Z,98323.44
2023-03-30T13:10:49.054Z,98313.00
2023-03-30T13:13:18.890Z,98314.72
2023-03-30T13:15:49.718Z,98308.72
2023-03-30T13:18:36.168Z,98293.69
2023-03-30T13:21:17.971Z,98279.72
2023-03-30T13:23:46.519Z,98298.88
2023-03-30T13:26:34.706Z,98289.28
2023-03-30T13:29:08.919Z,98298.94
2023-03-30T13:31:55.643Z,98261.66
2023-03-30T13:34:39.053Z,98272.56
2023-03-30T13:37:15.472Z,98274.22
2023-03-30T13:39:47.877Z,98270.47
2023-03-30T13:42:24.076Z,98268.81
2023-03-30T13:44:57.337Z,98276.75
2023-03-30T13:47:31.654Z,98267.91
2023-03-30T13:50:03.591Z,98266.72
2023-03-30T13:52:38.482Z,98280.16
2023-03-30T13:55:11.926Z,98281.63
2023-03-30T13:57:41.906Z,98291.91
2023-03-30T14:00:22.559Z,98297.63
2023-03-30T14:02:50.958Z,98303.25
2023-03-30T14:05:21.922Z,98293.72
2023-03-30T14:07:55.294Z,98304.38
2023-03-30T14:10:23.654Z,98306.41
2023-03-30T14:12:55.139Z,98301.47
2023-03-30T14:15:24.536Z,98302.03
2023-03-30T14:17:54.359Z,98292.91
2023-03-30T14:20:28.770Z,98305.19
2023-03-30T14:23:00.549Z,98304.03
2023-03-30T14:25:29.803Z,98284.06
2023-03-30T14:27:58.523Z,98256.50
2023-03-30T14:30:29.685Z,98230.41
2023-03-30T14:33:11.439Z,98218.72
2023-03-30T14:35:42.472Z,98210.47
2023-03-30T14:38:17.245Z,98205.75
2023-03-30T14:40:46.465Z,98198.56
2023-03-30T14:43:16.264Z,98197.22
2023-03-30T14:45:44.751Z,98189.19
2023-03-30T14:48:20.461Z,98190.97
2023-03-30T14:50:50.020Z,98202.19
2023-03-30T14:53:22.345Z,98213.78
2023-03-30T14:55:51.659Z,98218.59
2023-03-30T14:58:20.156Z,98210.81
2023-03-30T15:00:48.695Z,98198.53
2023-03-30T15:03:26.707Z,98193.91
2023-03-30T15:06:01.461Z,98184.31
2023-03-30T15:08:32.786Z,98184.84
2023-03-30T15:11:04.574Z,98175.47
2023-03-30T15:13:34.850Z,98183.22
2023-03-30T15:16:03.350Z,98188.22
2023-03-30T15:18:33.140Z,98183.78
2023-03-30T15:21:01.867Z,98187.56
2023-03-30T15:23:34.825Z,98187.78
2023-03-30T15:26:04.526Z,98205.00
2023-03-30T15:28:35.167Z,98207.97
2023-03-30T15:31:03.448Z,98203.34
2023-03-30T15:33:35.247Z,98202.97
2023-03-30T15:36:05.997Z,98202.91
2023-03-30T15:38:36.703Z,98188.25
2023-03-30T15:41:11.272Z,98174.69
2023-03-30T15:43:53.164Z,98158.66
2023-03-30T15:46:21.730Z,98156.03
2023-03-30T15:48:51.313Z,98155.28
2023-03-30T15:51:22.623Z,98133.31
2023-03-30T15:53:55.600Z,98130.69
2023-03-30T15:56:26.855Z,98115.56
2023-03-30T15:58:55.670Z,98117.59
2023-03-30T16:01:24.656Z,98126.50
2023-03-30T16:03:56.498Z,98115.06
2023-03-30T16:06:25.358Z,98108.97
2023-03-30T16:08:54.939Z,98100.19
2023-03-30T16:11:23.400Z,98101.72
2023-03-30T16:13:54.061Z,98093.63
2023-03-30T16:16:22.333Z,98096.09
2023-03-30T16:18:50.648Z,98077.00
2023-03-30T16:21:19.120Z,98061.84
2023-03-30T16:23:47.375Z,98059.53
2023-03-30T16:26:17.136Z,98070.97
2023-03-30T16:28:45.716Z,98069.19
2023-03-30T16:31:17.791Z,98063.53
2023-03-30T16:33:46.253Z,98051.56
2023-03-30T16:36:16.508Z,98041.41
2023-03-30T16:38:45.514Z,98021.25
2023-03-30T16:41:16.718Z,98019.97
2023-03-30T16:43:46.665Z,98019.41
2023-03-30T16:46:15.783Z,98015.28
2023-03-30T16:48:44.068Z,98005.06
2023-03-30T16:51:12.421Z,98015.72
2023-03-30T16:53:40.715Z,98001.63
2023-03-30T16:56:17.951Z,98008.19
2023-03-30T16:58:51.118Z,98009.25
2023-03-30T17:01:19.889Z,97989.34
2023-03-30T17:03:48.279Z,97976.78
2023-03-30T17:06:17.259Z,97965.47
2023-03-30T17:08:45.455Z,97972.78
2023-03-30T17:11:13.949Z,97963.84
2023-03-30T17:13:42.525Z,97966.75
2023-03-30T17:16:13.654Z,97962.19
2023-03-30T17:18:42.128Z,97950.75
2023-03-30T17:21:16.507Z,97947.28
2023-03-30T17:23:47.747Z,97934.56
2023-03-30T17:26:16.147Z,97924.34
2023-03-30T17:28:44.923Z,97921.19
2023-03-30T17:31:16.548Z,97917.31
2023-03-30T17:33:44.836Z,97915.47
2023-03-30T17:36:14.610Z,97912.53
2023-03-30T17:38:43.792Z,97922.19
2023-03-30T17:41:13.754Z,97909.03
2023-03-30T17:43:43.639Z,97910.09
2023-03-30T17:46:12.723Z,97900.13
2023-03-30T17:48:42.525Z,97898.81
2023-03-30T17:51:10.647Z,97892.94
2023-03-30T17:53:39.593Z,97889.28
2023-03-30T17:56:08.937Z,97887.63
2023-03-30T17:58:37.857Z,97872.38
2023-03-30T18:01:08.278Z,97859.91
2023-03-30T18:03:39.804Z,97854.50
2023-03-30T18:06:12.422Z,97843.91
2023-03-30T18:08:41.106Z,97843.78
2023-03-30T18:11:09.578Z,97846.38
2023-03-30T18:13:38.245Z,97839.94
2023-03-30T18:16:06.907Z,97826.06
2023-03-30T18:18:35.336Z,97820.19
2023-03-30T18:21:06.801Z,97820.31
2023-03-30T18:23:37.448Z,97818.69
2023-03-30T18:26:11.220Z,97802.69
2023-03-30T18:28:44.095Z,97804.22
2023-03-30T18:31:12.881Z,97791.53
2023-03-30T18:33:41.420Z,97790.59
2023-03-30T18:36:12.991Z,97786.63
2023-03-30T18:38:43.270Z,97778.16
2023-03-30T18:41:12.570Z,97774.31
2023-03-30T18:43:40.786Z,97778.78
2023-03-30T18:46:10.759Z,97770.75
2023-03-30T18:48:39.040Z,97775.59
2023-03-30T18:51:07.257Z,97765.16
2023-03-30T18:53:36.947Z,97761.47
2023-03-30T18:56:07.481Z,97759.38
2023-03-30T18:58:41.747Z,97756.78
2023-03-30T19:01:12.907Z,97758.78
2023-03-30T19:03:42.164Z,97761.84
2023-03-30T19:06:11.915Z,97753.50
2023-03-30T19:08:40.122Z,97754.91
2023-03-30T19:11:10.050Z,97744.34
2023-03-30T19:13:38.296Z,97748.81
2023-03-30T19:16:07.990Z,97742.25
2023-03-30T19:18:36.180Z,97741.88
2023-03-30T19:21:04.897Z,97725.91
2023-03-30T19:23:33.453Z,97721.09
2023-03-30T19:26:01.503Z,97718.41
2023-03-30T19:28:31.333Z,97715.47
2023-03-30T19:31:04.603Z,97707.72
2023-03-30T19:33:32.905Z,97701.03
2023-03-30T19:36:01.086Z,97701.84
2023-03-30T19:38:29.340Z,97691.75
2023-03-30T19:41:00.717Z,97681.44
2023-03-30T19:43:30.620Z,97680.16
2023-03-30T19:45:58.749Z,97670.16
2023-03-30T19:48:27.569Z,97660.53
2023-03-30T19:50:55.675Z,97662.19
2023-03-30T19:53:24.338Z,97655.59
2023-03-30T19:55:52.726Z,97649.72
2023-03-30T19:58:21.073Z,97649.72
2023-03-30T20:00:51.173Z,97645.50
2023-03-30T20:03:19.653Z,97638.94
2023-03-30T20:05:50.413Z,97637.19
2023-03-30T20:08:24.363Z,97642.69
2023-03-30T20:10:53.078Z,97633.63
2023-03-30T20:13:22.233Z,97619.81
2023-03-30T20:15:54.990Z,97623.09
2023-03-30T20:18:23.360Z,97609.38
2023-03-30T20:20:54.188Z,97609.97
2023-03-30T20:23:22.644Z,97591.44
2023-03-30T20:25:54.385Z,97591.09
2023-03-30T20:28:22.889Z,97574.22
2023-03-30T20:30:57.529Z,97567.03
2023-03-30T20:33:28.692Z,97548.28
2023-03-30T20:35:59.881Z,97552.03
2023-03-30T20:38:28.783Z,97547.34
2023-03-30T20:40:59.084Z,97541.34
2023-03-30T20:43:28.041Z,97542.66
2023-03-30T20:46:04.423Z,97532.69
2023-03-30T20:48:37.702Z,97526.84
2023-03-30T20:51:10.968Z,97517.91
2023-03-30T20:53:39.990Z,97508.78
2023-03-30T20:56:12.107Z,97507.50
2023-03-30T20:58:44.372Z,97493.78
2023-03-30T21:01:17.914Z,97490.03
2023-03-30T21:03:50.257Z,97489.22
2023-03-30T21:06:23.740Z,97482.75
2023-03-30T21:08:52.921Z,97475.13
2023-03-30T21:11:24.400Z,97468.94
2023-03-30T21:13:53.034Z,97470.59
2023-03-30T21:16:26.797Z,97467.03
2023-03-30T21:18:55.533Z,97466.00
2023-03-30T21:21:24.973Z,97458.38
2023-03-30T21:23:54.051Z,97461.31
2023-03-30T21:26:24.826Z,97452.63
2023-03-30T21:28:54.355Z,97449.50
2023-03-30T21:31:26.840Z,97444.09
2023-03-30T21:33:56.937Z,97427.91
2023-03-30T21:36:26.253Z,97417.59
2023-03-30T21:38:57.828Z,97422.53
2023-03-30T21:41:26.403Z,97418.66
2023-03-30T21:43:55.176Z,97407.53
2023-03-30T21:46:27.294Z,97401.88
2023-03-30T21:48:58.327Z,97392.41
2023-03-30T21:51:27.773Z,97387.16
2023-03-30T21:53:59.815Z,97379.53
2023-03-30T21:56:33.205Z,97365.34
2023-03-30T21:59:04.507Z,97352.59
2023-03-30T22:01:40.364Z,97344.84
2023-03-30T22:04:10.148Z,97342.41
2023-03-30T22:06:38.597Z,97334.56
2023-03-30T22:09:10.004Z,97331.41
2023-03-30T22:11:39.971Z,97314.44
2023-03-30T22:14:08.909Z,97321.88
2023-03-30T22:16:39.067Z,97317.34
2023-03-30T22:19:10.775Z,97311.34
2023-03-30T22:21:42.218Z,97305.97
2023-03-30T22:24:12.773Z,97303.28
2023-03-30T22:26:43.399Z,97301.78
2023-03-30T22:29:12.553Z,97298.59
2023-03-30T22:31:45.038Z,97289.25
2023-03-30T22:34:14.382Z,97287.38
2023-03-30T22:36:44.608Z,97287.72
2023-03-30T22:39:14.717Z,97283.25
2023-03-30T22:41:42.895Z,97281.97
2023-03-30T22:44:11.341Z,97283.63
2023-03-30T22:46:41.027Z,97283.94
2023-03-30T22:49:13.345Z,97271.63
2023-03-30T22:51:53.608Z,97274.31
2023-03-30T22:54:24.089Z,97271.97
2023-03-30T22:56:54.590Z,97267.66
2023-03-30T22:59:25.808Z,97274.44
2023-03-30T23:01:54.013Z,97263.19
2023-03-30T23:04:24.813Z,97265.28
2023-03-30T23:06:54.860Z,97259.88
2023-03-30T23:09:23.413Z,97256.94
2023-03-30T23:11:51.804Z,97252.88
2023-03-30T23:14:20.610Z,97252.41
2023-03-30T23:16:49.021Z,97258.34
2023-03-30T23:19:17.202Z,97252.66
2023-03-30T23:21:47.931Z,97250.75
2023-03-30T23:24:16.153Z,97249.94
2023-03-30T23:26:44.466Z,97252.03
2023-03-30T23:29:12.652Z,97245.84
2023-03-30T23:31:40.873Z,97251.81
2023-03-30T23:34:10.281Z,97242.91
2023-03-30T23:36:38.719Z,97249.09
2023-03-30T23:39:09.375Z,97243.72
2023-03-30T23:41:37.680Z,97243.72
2023-03-30T23:44:06.140Z,97249.09
2023-03-30T23:46:34.762Z,97233.53
2023-03-30T23:49:03.461Z,97236.00
2023-03-30T23:51:31.870Z,97233.53
2023-03-30T23:54:06.182Z,97235.75
2023-03-30T23:56:37.244Z,97231.53
2023-03-30T23:59:05.869Z,97228.22
